createdAt,value
2019-03-31T00:00:37.446Z,100.00
2019-03-31T00:03:06.994Z,100.00
2019-03-31T00:05:37.440Z,100.00
2019-03-31T00:08:07.217Z,100.00
2019-03-31T00:10:37.353Z,100.00
2019-03-31T00:13:06.998Z,100.00
2019-03-31T00:15:36.780Z,100.00
2019-03-31T00:18:06.398Z,100.00
2019-03-31T00:20:35.947Z,100.00
2019-03-31T00:23:05.531Z,100.00
2019-03-31T00:25:35.079Z,100.00
2019-03-31T00:28:04.670Z,100.00
2019-03-31T00:30:34.638Z,100.00
2019-03-31T00:33:04.282Z,100.00
2019-03-31T00:35:33.973Z,100.00
2019-03-31T00:38:03.518Z,100.00
2019-03-31T00:40:33.066Z,100.00
2019-03-31T00:43:02.752Z,100.00
2019-03-31T00:45:32.592Z,100.00
2019-03-31T00:48:02.098Z,100.00
2019-03-31T00:50:31.973Z,100.00
2019-03-31T00:53:01.577Z,100.00
2019-03-31T00:55:31.158Z,100.00
2019-03-31T00:58:00.698Z,100.00
2019-03-31T01:00:48.881Z,100.00
2019-03-31T01:03:20.957Z,100.00
2019-03-31T01:05:50.740Z,100.00
2019-03-31T01:08:20.384Z,100.00
2019-03-31T01:10:49.977Z,100.00
2019-03-31T01:13:19.814Z,100.00
2019-03-31T01:15:49.773Z,100.00
2019-03-31T01:18:19.685Z,100.00
2019-03-31T01:20:49.640Z,100.00
2019-03-31T01:23:19.222Z,100.00
2019-03-31T01:25:48.813Z,100.00
2019-03-31T01:28:18.568Z,100.00
2019-03-31T01:30:48.303Z,100.00
2019-03-31T01:33:18.753Z,100.00
2019-03-31T01:35:48.484Z,100.00
2019-03-31T01:38:19.134Z,100.00
2019-03-31T01:40:48.686Z,100.00
2019-03-31T01:43:18.357Z,100.00
2019-03-31T01:45:48.213Z,100.00
2019-03-31T01:48:17.799Z,100.00
2019-03-31T01:50:47.851Z,100.00
2019-03-31T01:53:17.440Z,100.00
2019-03-31T01:55:47.206Z,100.00
2019-03-31T01:58:16.721Z,100.00
2019-03-31T02:00:50.422Z,100.00
2019-03-31T02:03:19.971Z,100.00
2019-03-31T02:05:49.558Z,100.00
2019-03-31T02:08:19.105Z,100.00
2019-03-31T02:10:48.758Z,100.00
2019-03-31T02:13:18.665Z,100.00
2019-03-31T02:15:48.426Z,100.00
2019-03-31T02:18:18.022Z,100.00
2019-03-31T02:20:47.494Z,100.00
2019-03-31T02:23:17.159Z,100.00
2019-03-31T02:25:46.806Z,100.00
2019-03-31T02:28:16.849Z,100.00
2019-03-31T02:30:46.438Z,100.00
2019-03-31T02:33:16.028Z,100.00
2019-03-31T02:35:45.658Z,100.00
2019-03-31T02:38:15.495Z,100.00
2019-03-31T02:40:45.026Z,100.00
2019-03-31T02:43:14.949Z,100.00
2019-03-31T02:45:44.817Z,100.00
2019-03-31T02:48:14.766Z,100.00
2019-03-31T02:50:47.776Z,100.00
2019-03-31T02:53:18.070Z,100.00
2019-03-31T02:55:48.436Z,100.00
2019-03-31T02:58:19.939Z,100.00
2019-03-31T03:00:49.533Z,100.00
2019-03-31T03:03:20.407Z,100.00
2019-03-31T03:05:50.443Z,100.00
2019-03-31T03:08:20.890Z,100.00
2019-03-31T03:10:54.741Z,100.00
2019-03-31T03:13:30.267Z,100.00
2019-03-31T03:16:17.533Z,100.00
2019-03-31T03:18:47.984Z,100.00
2019-03-31T03:21:17.681Z,100.00
2019-03-31T03:23:47.230Z,100.00
2019-03-31T03:26:16.921Z,100.00
2019-03-31T03:28:47.065Z,100.00
2019-03-31T03:31:17.288Z,100.00
2019-03-31T03:33:47.461Z,100.00
2019-03-31T03:36:17.636Z,100.00
2019-03-31T03:38:47.215Z,100.00
2019-03-31T03:41:16.801Z,100.00
2019-03-31T03:43:55.398Z,100.00
2019-03-31T03:46:17.662Z,100.00
2019-03-31T03:48:47.320Z,100.00
2019-03-31T03:51:16.909Z,100.00
2019-03-31T03:53:46.457Z,100.00
2019-03-31T03:56:16.071Z,100.00
2019-03-31T03:58:45.757Z,100.00
2019-03-31T04:01:23.330Z,100.00
2019-03-31T04:03:52.918Z,100.00
2019-03-31T04:06:22.514Z,100.00
2019-03-31T04:08:52.072Z,100.00
2019-03-31T04:11:29.582Z,100.00
2019-03-31T04:13:59.432Z,100.00
2019-03-31T04:16:29.080Z,100.00
2019-03-31T04:18:58.692Z,100.00
2019-03-31T04:21:28.245Z,100.00
2019-03-31T04:23:58.175Z,100.00
2019-03-31T04:26:27.841Z,100.00
2019-03-31T04:28:57.406Z,100.00
2019-03-31T04:31:26.970Z,100.00
2019-03-31T04:33:56.617Z,100.00
2019-03-31T04:36:26.220Z,100.00
2019-03-31T04:38:59.914Z,100.00
2019-03-31T04:41:27.104Z,100.00
2019-03-31T04:43:56.658Z,100.00
2019-03-31T04:46:26.206Z,100.00
2019-03-31T04:48:55.803Z,100.00
2019-03-31T04:51:25.672Z,100.00
2019-03-31T04:53:55.222Z,100.00
2019-03-31T04:56:24.797Z,100.00
2019-03-31T04:58:54.381Z,100.00
2019-03-31T05:01:24.318Z,100.00
2019-03-31T05:04:04.643Z,100.00
2019-03-31T05:06:25.172Z,100.00
2019-03-31T05:08:55.057Z,100.00
2019-03-31T05:11:24.646Z,100.00
2019-03-31T05:13:54.198Z,100.00
2019-03-31T05:16:23.784Z,100.00
2019-03-31T05:18:53.325Z,100.00
2019-03-31T05:21:23.289Z,100.00
2019-03-31T05:23:53.214Z,100.00
2019-03-31T05:26:22.893Z,100.00
2019-03-31T05:28:52.472Z,100.00
2019-03-31T05:31:22.023Z,100.00
2019-03-31T05:33:51.571Z,100.00
2019-03-31T05:36:21.216Z,100.00
2019-03-31T05:38:50.683Z,100.00
2019-03-31T05:41:20.258Z,100.00
2019-03-31T05:43:49.823Z,100.00
2019-03-31T05:46:19.365Z,100.00
2019-03-31T05:48:48.952Z,100.00
2019-03-31T05:51:18.497Z,100.00
2019-03-31T05:53:48.095Z,100.00
2019-03-31T05:56:17.562Z,100.00
2019-03-31T05:58:47.102Z,100.00
2019-03-31T06:01:17.059Z,100.00
2019-03-31T06:03:46.606Z,100.00
2019-03-31T06:06:16.157Z,100.00
2019-03-31T06:08:45.756Z,100.00
2019-03-31T06:11:15.318Z,100.00
2019-03-31T06:13:45.186Z,100.00
2019-03-31T06:16:14.788Z,100.00
2019-03-31T06:18:44.397Z,100.00
2019-03-31T06:21:13.983Z,100.00
2019-03-31T06:23:43.701Z,100.00
2019-03-31T06:26:13.384Z,100.00
2019-03-31T06:28:42.947Z,100.00
2019-03-31T06:31:12.538Z,100.00
2019-03-31T06:33:42.227Z,100.00
2019-03-31T06:36:11.823Z,100.00
2019-03-31T06:38:41.690Z,100.00
2019-03-31T06:41:11.271Z,100.00
2019-03-31T06:43:41.242Z,97.48
2019-03-31T06:46:10.840Z,92.93
2019-03-31T06:48:40.394Z,91.58
2019-03-31T06:51:10.043Z,91.35
2019-03-31T06:53:39.955Z,89.48
2019-03-31T06:56:09.464Z,84.34
2019-03-31T06:58:39.544Z,85.59
2019-03-31T07:01:09.243Z,86.70
2019-03-31T07:03:38.933Z,83.73
2019-03-31T07:06:08.530Z,84.45
2019-03-31T07:08:38.417Z,79.18
2019-03-31T07:11:08.008Z,78.71
2019-03-31T07:13:37.615Z,82.72
2019-03-31T07:16:07.166Z,80.02
2019-03-31T07:18:36.760Z,80.23
2019-03-31T07:21:06.541Z,80.95
2019-03-31T07:23:36.082Z,81.73
2019-03-31T07:26:05.627Z,80.89
2019-03-31T07:28:35.234Z,81.09
2019-03-31T07:31:04.776Z,84.30
2019-03-31T07:33:34.494Z,85.48
2019-03-31T07:36:04.172Z,88.52
2019-03-31T07:38:39.208Z,93.51
2019-03-31T07:41:12.535Z,93.66
2019-03-31T07:43:36.781Z,97.12
2019-03-31T07:46:06.659Z,95.45
2019-03-31T07:48:36.228Z,93.95
2019-03-31T07:51:05.812Z,98.48
2019-03-31T07:53:35.711Z,96.44
2019-03-31T07:56:05.755Z,91.46
2019-03-31T07:58:35.299Z,94.97
2019-03-31T08:01:04.943Z,91.03
2019-03-31T08:03:34.738Z,92.83
2019-03-31T08:06:04.268Z,87.52
2019-03-31T08:08:33.842Z,84.95
2019-03-31T08:11:03.379Z,80.96
2019-03-31T08:13:32.953Z,77.59
2019-03-31T08:16:02.873Z,77.11
2019-03-31T08:18:32.417Z,73.95
2019-03-31T08:21:01.987Z,74.68
2019-03-31T08:23:31.933Z,70.48
2019-03-31T08:26:01.469Z,70.01
2019-03-31T08:28:31.046Z,66.53
2019-03-31T08:31:00.588Z,59.83
2019-03-31T08:33:30.134Z,63.02
2019-03-31T08:35:59.713Z,59.85
2019-03-31T08:38:29.300Z,61.83
2019-03-31T08:40:58.830Z,62.00
2019-03-31T08:43:28.457Z,61.66
2019-03-31T08:45:58.127Z,62.00
2019-03-31T08:48:28.051Z,61.07
2019-03-31T08:50:57.598Z,60.51
2019-03-31T08:53:27.196Z,59.97
2019-03-31T08:55:56.791Z,61.72
2019-03-31T08:58:26.306Z,60.44
2019-03-31T09:01:02.122Z,60.44
2019-03-31T09:03:31.717Z,60.31
2019-03-31T09:06:02.554Z,60.38
2019-03-31T09:08:32.314Z,60.52
2019-03-31T09:11:01.813Z,55.92
2019-03-31T09:13:31.352Z,61.66
2019-03-31T09:16:00.930Z,59.94
2019-03-31T09:18:30.467Z,60.93
2019-03-31T09:21:00.047Z,60.59
2019-03-31T09:23:29.806Z,61.99
2019-03-31T09:25:59.371Z,62.12
2019-03-31T09:28:28.911Z,62.88
2019-03-31T09:30:58.557Z,59.94
2019-03-31T09:33:28.162Z,60.40
2019-03-31T09:35:57.849Z,59.48
2019-03-31T09:38:27.640Z,62.36
2019-03-31T09:40:57.284Z,58.93
2019-03-31T09:43:26.745Z,61.92
2019-03-31T09:45:56.447Z,59.77
2019-03-31T09:48:26.375Z,55.72
2019-03-31T09:50:56.638Z,56.87
2019-03-31T09:53:26.370Z,55.47
2019-03-31T09:55:55.961Z,54.31
2019-03-31T09:58:25.488Z,54.28
2019-03-31T10:00:55.088Z,53.40
2019-03-31T10:03:24.623Z,53.50
2019-03-31T10:05:54.187Z,50.52
2019-03-31T10:08:23.756Z,50.62
2019-03-31T10:10:53.680Z,52.90
2019-03-31T10:13:23.170Z,50.08
2019-03-31T10:15:52.748Z,50.35
2019-03-31T10:18:22.320Z,52.48
2019-03-31T10:20:51.861Z,50.42
2019-03-31T10:23:21.446Z,49.59
2019-03-31T10:25:51.143Z,50.92
2019-03-31T10:28:20.754Z,49.55
2019-03-31T10:30:50.299Z,46.35
2019-03-31T10:33:19.872Z,51.24
2019-03-31T10:35:49.455Z,53.29
2019-03-31T10:38:19.094Z,53.55
2019-03-31T10:40:48.666Z,49.67
2019-03-31T10:43:18.212Z,50.57
2019-03-31T10:45:47.788Z,52.59
2019-03-31T10:48:20.628Z,51.98
2019-03-31T10:50:48.631Z,50.96
2019-03-31T10:53:18.165Z,52.97
2019-03-31T10:55:47.705Z,49.10
2019-03-31T10:58:17.287Z,51.44
2019-03-31T11:00:46.863Z,50.10
2019-03-31T11:03:16.551Z,49.73
2019-03-31T11:05:46.194Z,52.35
2019-03-31T11:08:15.729Z,52.26
2019-03-31T11:10:45.311Z,49.19
2019-03-31T11:13:14.856Z,49.09
2019-03-31T11:15:44.526Z,51.92
2019-03-31T11:18:14.112Z,52.33
2019-03-31T11:20:43.694Z,50.48
2019-03-31T11:23:21.288Z,51.39
2019-03-31T11:25:50.852Z,50.73
2019-03-31T11:28:20.463Z,49.84
2019-03-31T11:30:50.135Z,53.72
2019-03-31T11:33:19.646Z,52.39
2019-03-31T11:35:49.586Z,50.58
2019-03-31T11:38:19.175Z,50.14
2019-03-31T11:40:48.714Z,52.81
2019-03-31T11:43:18.249Z,52.57
2019-03-31T11:45:47.912Z,49.84
2019-03-31T11:48:17.699Z,49.39
2019-03-31T11:50:47.281Z,48.01
2019-03-31T11:53:16.904Z,53.62
2019-03-31T11:55:46.547Z,46.95
2019-03-31T11:58:16.134Z,48.03
2019-03-31T12:00:49.274Z,45.71
2019-03-31T12:03:18.858Z,48.31
2019-03-31T12:05:48.411Z,49.08
2019-03-31T12:08:17.996Z,46.74
2019-03-31T12:10:47.669Z,47.35
2019-03-31T12:13:17.247Z,46.15
2019-03-31T12:15:46.840Z,47.19
2019-03-31T12:18:16.378Z,48.11
2019-03-31T12:20:45.953Z,48.35
2019-03-31T12:23:15.537Z,47.71
2019-03-31T12:25:45.466Z,46.34
2019-03-31T12:28:15.008Z,45.25
2019-03-31T12:30:44.594Z,46.80
2019-03-31T12:33:14.488Z,46.01
2019-03-31T12:35:44.026Z,45.90
2019-03-31T12:38:13.608Z,47.52
2019-03-31T12:40:43.196Z,46.13
2019-03-31T12:43:12.736Z,44.05
2019-03-31T12:45:43.365Z,44.04
2019-03-31T12:48:13.069Z,47.08
2019-03-31T12:50:42.611Z,48.84
2019-03-31T12:53:12.153Z,49.68
2019-03-31T12:55:42.190Z,48.96
2019-03-31T12:58:12.092Z,49.35
2019-03-31T13:00:41.630Z,48.97
2019-03-31T13:03:12.084Z,48.82
2019-03-31T13:05:41.701Z,47.77
2019-03-31T13:08:11.254Z,46.59
2019-03-31T13:10:40.838Z,47.67
2019-03-31T13:13:10.408Z,46.76
2019-03-31T13:15:40.101Z,46.70
2019-03-31T13:18:09.724Z,46.74
2019-03-31T13:20:39.608Z,48.20
2019-03-31T13:23:09.253Z,50.24
2019-03-31T13:25:38.840Z,50.01
2019-03-31T13:28:08.421Z,50.10
2019-03-31T13:30:38.138Z,47.81
2019-03-31T13:33:07.833Z,49.43
2019-03-31T13:35:37.379Z,48.67
2019-03-31T13:38:11.405Z,50.16
2019-03-31T13:40:38.336Z,49.62
2019-03-31T13:43:07.984Z,50.36
2019-03-31T13:45:37.549Z,50.77
2019-03-31T13:48:07.137Z,49.52
2019-03-31T13:50:37.103Z,47.33
2019-03-31T13:53:06.762Z,49.15
2019-03-31T13:55:36.686Z,50.54
2019-03-31T13:58:08.643Z,48.33
2019-03-31T14:00:46.936Z,48.30
2019-03-31T14:03:16.480Z,49.02
2019-03-31T14:05:46.059Z,47.18
2019-03-31T14:08:25.714Z,45.90
2019-03-31T14:10:46.914Z,48.23
2019-03-31T14:13:16.500Z,44.65
2019-03-31T14:15:46.100Z,48.59
2019-03-31T14:18:15.656Z,50.10
2019-03-31T14:20:45.338Z,51.56
2019-03-31T14:23:14.881Z,48.20
2019-03-31T14:25:44.467Z,49.80
2019-03-31T14:28:14.105Z,51.47
2019-03-31T14:30:44.019Z,49.72
2019-03-31T14:33:13.570Z,50.07
2019-03-31T14:35:43.191Z,47.29
2019-03-31T14:38:12.890Z,48.87
2019-03-31T14:40:42.829Z,50.97
2019-03-31T14:43:12.890Z,49.86
2019-03-31T14:45:42.488Z,49.77
2019-03-31T14:48:12.025Z,47.93
2019-03-31T14:50:41.764Z,49.47
2019-03-31T14:53:11.349Z,47.42
2019-03-31T14:55:40.901Z,49.84
2019-03-31T14:58:10.583Z,46.78
2019-03-31T15:00:40.119Z,49.01
2019-03-31T15:03:09.741Z,51.26
2019-03-31T15:05:39.305Z,49.89
2019-03-31T15:08:08.959Z,52.11
2019-03-31T15:10:38.653Z,50.49
2019-03-31T15:13:08.291Z,53.75
2019-03-31T15:15:38.137Z,55.52
2019-03-31T15:18:08.117Z,50.64
2019-03-31T15:20:38.015Z,51.99
2019-03-31T15:23:07.549Z,57.02
2019-03-31T15:25:37.129Z,51.78
2019-03-31T15:28:06.702Z,51.97
2019-03-31T15:30:36.279Z,54.96
2019-03-31T15:33:05.863Z,53.95
2019-03-31T15:35:37.705Z,55.53
2019-03-31T15:38:06.725Z,54.67
2019-03-31T15:40:36.438Z,52.95
2019-03-31T15:43:06.010Z,55.52
2019-03-31T15:45:35.643Z,52.66
2019-03-31T15:48:05.246Z,50.43
2019-03-31T15:50:34.818Z,51.21
2019-03-31T15:53:04.491Z,49.59
2019-03-31T15:55:34.113Z,51.86
2019-03-31T15:58:05.290Z,49.88
2019-03-31T16:00:35.228Z,51.58
2019-03-31T16:03:04.799Z,51.79
2019-03-31T16:05:34.469Z,50.19
2019-03-31T16:08:03.718Z,51.21
2019-03-31T16:10:32.775Z,50.97
2019-03-31T16:13:01.775Z,50.41
2019-03-31T16:15:30.779Z,51.32
2019-03-31T16:18:00.216Z,52.62
2019-03-31T16:20:29.177Z,54.21
2019-03-31T16:22:58.234Z,54.22
2019-03-31T16:25:30.101Z,52.16
2019-03-31T16:27:59.444Z,53.78
2019-03-31T16:30:28.723Z,52.63
2019-03-31T16:32:57.736Z,51.73
2019-03-31T16:35:26.791Z,53.71
2019-03-31T16:37:55.801Z,52.73
2019-03-31T16:40:24.801Z,53.81
2019-03-31T16:42:53.852Z,52.41
2019-03-31T16:45:22.845Z,52.15
2019-03-31T16:47:51.860Z,56.70
2019-03-31T16:50:20.899Z,54.95
2019-03-31T16:52:52.627Z,53.57
2019-03-31T16:55:20.599Z,52.99
2019-03-31T16:57:49.721Z,52.75
2019-03-31T17:00:18.898Z,52.51
2019-03-31T17:02:47.891Z,53.24
2019-03-31T17:05:22.202Z,55.50
2019-03-31T17:07:47.826Z,55.01
2019-03-31T17:10:16.869Z,57.10
2019-03-31T17:12:45.906Z,57.43
2019-03-31T17:15:15.111Z,56.43
2019-03-31T17:17:44.153Z,55.58
2019-03-31T17:20:13.543Z,57.31
2019-03-31T17:22:42.587Z,58.74
2019-03-31T17:25:11.726Z,59.09
2019-03-31T17:27:40.733Z,61.47
2019-03-31T17:30:10.269Z,60.91
2019-03-31T17:32:39.849Z,63.83
2019-03-31T17:35:08.882Z,62.11
2019-03-31T17:37:38.001Z,63.08
2019-03-31T17:40:07.901Z,63.00
2019-03-31T17:42:36.942Z,60.51
2019-03-31T17:45:06.885Z,60.35
2019-03-31T17:47:35.889Z,67.26
2019-03-31T17:50:06.701Z,65.61
2019-03-31T17:52:35.742Z,69.98
2019-03-31T17:55:05.785Z,69.68
2019-03-31T17:57:34.831Z,65.68
2019-03-31T18:00:04.629Z,71.03
2019-03-31T18:02:33.630Z,76.22
2019-03-31T18:05:02.711Z,79.54
2019-03-31T18:07:31.713Z,81.08
2019-03-31T18:10:00.717Z,78.74
2019-03-31T18:12:30.081Z,80.15
2019-03-31T18:14:59.080Z,78.31
2019-03-31T18:17:28.164Z,82.12
2019-03-31T18:19:57.199Z,87.60
2019-03-31T18:22:26.236Z,87.20
2019-03-31T18:24:55.272Z,88.10
2019-03-31T18:27:24.263Z,92.52
2019-03-31T18:29:53.266Z,92.25
2019-03-31T18:32:22.319Z,96.18
2019-03-31T18:34:51.241Z,95.57
2019-03-31T18:37:20.254Z,98.98
2019-03-31T18:39:49.292Z,100.00
2019-03-31T18:42:18.330Z,100.00
2019-03-31T18:44:47.339Z,100.00
2019-03-31T18:47:16.388Z,100.00
2019-03-31T18:49:45.388Z,100.00
2019-03-31T18:52:14.433Z,100.00
2019-03-31T18:54:57.186Z,100.00
2019-03-31T18:57:35.548Z,100.00
2019-03-31T19:00:26.937Z,99.21
2019-03-31T19:03:08.393Z,100.00
2019-03-31T19:05:56.372Z,100.00
2019-03-31T19:08:41.726Z,100.00
2019-03-31T19:11:31.539Z,95.34
2019-03-31T19:14:19.685Z,96.87
2019-03-31T19:16:58.298Z,98.49
2019-03-31T19:19:39.825Z,97.43
2019-03-31T19:22:20.812Z,98.62
2019-03-31T19:25:07.568Z,98.28
2019-03-31T19:27:46.528Z,99.20
2019-03-31T19:30:34.838Z,97.43
2019-03-31T19:33:25.876Z,98.12
2019-03-31T19:36:12.030Z,97.83
2019-03-31T19:39:15.240Z,98.18
2019-03-31T19:41:53.468Z,98.76
2019-03-31T19:44:35.272Z,97.88
2019-03-31T19:47:29.231Z,98.63
2019-03-31T19:50:23.358Z,98.99
2019-03-31T19:53:00.288Z,97.82
2019-03-31T19:55:44.822Z,96.91
2019-03-31T19:58:27.663Z,97.72
2019-03-31T20:01:18.545Z,97.15
2019-03-31T20:04:06.348Z,98.11
2019-03-31T20:06:58.888Z,97.61
2019-03-31T20:09:45.598Z,98.95
2019-03-31T20:12:39.827Z,100.00
2019-03-31T20:15:34.168Z,100.00
2019-03-31T20:18:11.216Z,100.00
2019-03-31T20:21:02.399Z,100.00
2019-03-31T20:23:49.341Z,100.00
2019-03-31T20:26:40.698Z,100.00
2019-03-31T20:29:24.940Z,100.00
2019-03-31T20:32:06.241Z,100.00
2019-03-31T20:34:40.821Z,100.00
2019-03-31T20:37:28.846Z,100.00
2019-03-31T20:40:15.818Z,100.00
2019-03-31T20:43:02.919Z,100.00
2019-03-31T20:45:31.924Z,100.00
2019-03-31T20:48:00.918Z,100.00
2019-03-31T20:50:29.888Z,100.00
2019-03-31T20:52:58.816Z,100.00
2019-03-31T20:55:27.863Z,100.00
2019-03-31T20:57:57.601Z,100.00
2019-03-31T21:00:26.835Z,100.00
2019-03-31T21:02:56.159Z,100.00
2019-03-31T21:05:25.165Z,100.00
2019-03-31T21:07:54.055Z,100.00
2019-03-31T21:10:23.061Z,100.00
2019-03-31T21:12:52.382Z,100.00
2019-03-31T21:15:21.391Z,100.00
2019-03-31T21:17:50.838Z,100.00
2019-03-31T21:20:19.846Z,100.00
2019-03-31T21:22:48.928Z,100.00
2019-03-31T21:25:17.926Z,100.00
2019-03-31T21:27:46.936Z,100.00
2019-03-31T21:30:16.090Z,100.00
2019-03-31T21:32:45.304Z,100.00
2019-03-31T21:35:14.312Z,100.00
2019-03-31T21:37:43.361Z,100.00
2019-03-31T21:40:12.458Z,100.00
2019-03-31T21:42:41.461Z,100.00
2019-03-31T21:45:10.652Z,100.00
2019-03-31T21:47:39.665Z,100.00
2019-03-31T21:50:09.101Z,100.00
2019-03-31T21:52:38.027Z,100.00
2019-03-31T21:55:07.754Z,100.00
2019-03-31T21:57:36.751Z,100.00
2019-03-31T22:00:07.611Z,100.00
2019-03-31T22:02:36.968Z,100.00
2019-03-31T22:05:06.491Z,100.00
2019-03-31T22:07:35.599Z,100.00
2019-03-31T22:10:04.670Z,100.00
2019-03-31T22:12:33.704Z,100.00
2019-03-31T22:15:02.712Z,100.00
2019-03-31T22:17:31.755Z,100.00
2019-03-31T22:20:00.806Z,100.00
2019-03-31T22:22:29.851Z,100.00
2019-03-31T22:24:58.870Z,100.00
2019-03-31T22:27:27.928Z,100.00
2019-03-31T22:29:56.939Z,100.00
2019-03-31T22:32:26.282Z,100.00
2019-03-31T22:34:55.289Z,100.00
2019-03-31T22:37:24.721Z,100.00
2019-03-31T22:39:53.744Z,100.00
2019-03-31T22:42:22.765Z,100.00
2019-03-31T22:44:52.125Z,100.00
2019-03-31T22:47:21.347Z,100.00
2019-03-31T22:49:50.397Z,100.00
2019-03-31T22:52:19.410Z,100.00
2019-03-31T22:54:48.470Z,100.00
2019-03-31T22:57:17.404Z,100.00
2019-03-31T22:59:46.345Z,100.00
2019-03-31T23:02:15.578Z,100.00
2019-03-31T23:04:44.847Z,100.00
2019-03-31T23:07:13.854Z,100.00
2019-03-31T23:09:42.902Z,100.00
2019-03-31T23:12:11.930Z,100.00
2019-03-31T23:14:40.993Z,100.00
2019-03-31T23:17:10.000Z,100.00
2019-03-31T23:19:39.330Z,100.00
2019-03-31T23:22:08.339Z,100.00
2019-03-31T23:24:37.393Z,100.00
2019-03-31T23:27:06.458Z,100.00
2019-03-31T23:29:35.463Z,100.00
2019-03-31T23:32:04.476Z,100.00
2019-03-31T23:34:33.529Z,100.00
2019-03-31T23:37:02.870Z,100.00
2019-03-31T23:39:32.023Z,100.00
2019-03-31T23:42:01.031Z,100.00
2019-03-31T23:44:30.082Z,100.00
2019-03-31T23:46:59.197Z,100.00
2019-03-31T23:49:28.265Z,100.00
2019-03-31T23:51:57.357Z,100.00
2019-03-31T23:54:26.778Z,100.00
2019-03-31T23:56:55.847Z,100.00
2019-03-31T23:59:24.865Z,100.00
